Egyptian Shores, Illinois
Current Conditions -  °F | °C
As of 9:35 PM on Friday 28 Nov 2014 (Local Time) from KMWA Reporting Station
Clear Clear  
Wind Chill: 35°   Ceiling: Unl
Heat Index: 41°   Visibility: 10mi
Dew Point: 28°   Wind: 10mph
Humidity: 61%   Direction: 190°S
Pressure: 30"   Gusts: NA
Location:  37.6398°N, 88.8751°W
Report Text: KMWA 290335Z AUTO 19009KT 10SM CLR 05/M02 A3000 RMK AO2
Loading
Personal Weather Stations






























Interactive Weather Map New forecast layout! Learn more

10-Day Weather Forecast

Advertisements
Track Severe Weather on mobile